首页
METAR-TAF:

METAR-TAF

机场 :

瓜达尔, 巴基斯坦

纬度: 25-13-59N, 经度: 062-19-46E, 海拔: 29米

METAR: 丢失

时间: 09:14 (04:14 UTC)

预报

该预报发布于6小时和44分钟前的21:30 UTC
预报有效从22日的 00点(UTC)到 22日的 24点(UTC)
风速7节,风向东南,有时为17节阵风
能見度: 6000
短暂存在
从 22日的 00点(UTC)到 22日的 04点(UTC)
风速5节,风向北转东北
能見度: 3000
轻雾
成为
从 22日的 18点(UTC)到 22日的 20点(UTC)
风速7节,风向北转西北
能見度: 4000

TAF: OPGD 212130Z 2200/2224 14007G17KT 6000 NSC TEMPO 2200/2204 03005KT 3000 BR NSC BECMG 2218/2220 34007KT 4000 HZ NSC

超过4000个机场的气象观测和天气预报(METAR&TAF报告)。

可查询的气象台以黄色和红色小点在地图上表示。

将鼠标移到小点上方,可查看气象台名称。

然后点击查看天气观测和预报。

如需切换地图:点击带黑十字的绿色按钮放大地图;点击带横线的绿色按钮缩小地图;或者点击绿色箭头查看邻近地区的地图。


METAR-TAF: